This is the latest recevied weather packets stored in our database for station/object SP6W-10. If no packets are shown the sender has not sent any weather packets the latest 10 day(s).
| Time | Temp. | Humidity | Pressure | Rain* | Wind** | Luminosity | Snow |
|---|---|---|---|---|---|---|---|
| 1777846374 | 31.11° C | 18% | 1013.8 hPa | - | - | - | - |
| 1777844573 | 30° C | 18% | 1013.9 hPa | - | - | - | - |
| 1777842777 | 28.89° C | 19% | 1014.1 hPa | - | - | - | - |
| 1777840977 | 29.44° C | 18% | 1014.4 hPa | - | - | - | - |
| 1777839177 | 30° C | 18% | 1014.3 hPa | - | - | - | - |
| 1777837377 | 30° C | 18% | 1014.4 hPa | - | - | - | - |
| 1777835577 | 30.56° C | 18% | 1014.3 hPa | - | - | - | - |
| 1777833777 | 28.33° C | 20% | 1014.1 hPa | - | - | - | - |
| 1777831977 | 28.33° C | 22% | 1014 hPa | - | - | - | - |
| 1777830177 | 28.89° C | 21% | 1013.8 hPa | - | - | - | - |
| 1777828377 | 29.44° C | 21% | 1013.8 hPa | - | - | - | - |
| 1777826577 | 30° C | 20% | 1013.8 hPa | - | - | - | - |
| 1777824777 | 31.67° C | 19% | 1013.8 hPa | - | - | - | - |
| 1777822977 | 31.67° C | 19% | 1014 hPa | - | - | - | - |
| 1777821177 | 33.89° C | 16% | 1014.2 hPa | - | - | - | - |
| 1777808577 | 30° C | 17% | 1016.2 hPa | - | - | - | - |
| 1777806777 | 29.44° C | 17% | 1016.6 hPa | - | - | - | - |
| 1777804973 | 28.89° C | 18% | 1016.7 hPa | - | - | - | - |
| 1777803172 | 28.33° C | 17% | 1017.1 hPa | - | - | - | - |
| 1777801372 | 28.33° C | 18% | 1017.4 hPa | - | - | - | - |
| 1777799578 | 27.78° C | 18% | 1017.4 hPa | - | - | - | - |
| 1777795974 | 27.22° C | 20% | 1017.6 hPa | - | - | - | - |
| 1777785174 | 26.11° C | 21% | 1017.6 hPa | - | - | - | - |
| 1777783374 | 26.11° C | 20% | 1017.6 hPa | - | - | - | - |
| 1777781574 | 26.11° C | 20% | 1017.5 hPa | - | - | - | - |
* Rain since midnight (hover to see other rain measurements)
** Current wind speed in m/s (hover to see current wind gust speed)